Chocowinity, North Carolina
Current Conditions -  °F | °C
As of 4:35 AM on Saturday 20 Dec 2014 (Local Time) from KOCW Reporting Station
Clear Clear  
Wind Chill: -1°   Ceiling: Unl
Heat Index:   Visibility: 10mi
Dew Point:   Wind: 5mph
Humidity: 88%   Direction: 50°NE
Pressure: 30.23"   Gusts: NA
Location:  35.51°N, 77.1°W
Report Text: KOCW 200935Z AUTO 05004KT 10SM CLR 01/00 A3023 RMK AO2 T00141004
Loading
Personal Weather Stations






























Interactive Weather Map New forecast layout! Learn more

10-Day Weather Forecast

Advertisements
Track Severe Weather on mobile